sensor_id;sensor_type;location;lat;lon;timestamp;pressure;altitude;pressure_sealevel;temperature;humidity
69796;BME280;57073;45.650;9.612;2023-06-14T00:03:35;98734.03;;;16.84;74.23
69796;BME280;57073;45.650;9.612;2023-06-14T00:08:35;98735.88;;;16.65;73.81
69796;BME280;57073;45.650;9.612;2023-06-14T00:13:36;98733.88;;;16.51;74.44
69796;BME280;57073;45.650;9.612;2023-06-14T00:18:36;98731.63;;;16.34;74.23
69796;BME280;57073;45.650;9.612;2023-06-14T00:23:36;98729.75;;;16.54;72.94
69796;BME280;57073;45.650;9.612;2023-06-14T00:28:37;98725.19;;;16.73;72.37
69796;BME280;57073;45.650;9.612;2023-06-14T00:33:37;98729.16;;;16.81;71.82
69796;BME280;57073;45.650;9.612;2023-06-14T00:38:38;98725.66;;;16.81;72.23
69796;BME280;57073;45.650;9.612;2023-06-14T00:43:38;98718.69;;;17.13;70.00
69796;BME280;57073;45.650;9.612;2023-06-14T00:48:39;98705.28;;;16.97;69.88
69796;BME280;57073;45.650;9.612;2023-06-14T00:53:40;98697.03;;;17.02;70.64
69796;BME280;57073;45.650;9.612;2023-06-14T00:58:46;98704.34;;;17.07;69.91
69796;BME280;57073;45.650;9.612;2023-06-14T01:03:47;98713.50;;;16.92;70.10
69796;BME280;57073;45.650;9.612;2023-06-14T01:08:51;98713.75;;;17.15;70.71
69796;BME280;57073;45.650;9.612;2023-06-14T01:13:56;98715.28;;;17.21;70.58
69796;BME280;57073;45.650;9.612;2023-06-14T01:18:58;98710.38;;;17.04;70.57
69796;BME280;57073;45.650;9.612;2023-06-14T01:23:58;98720.13;;;17.43;71.96
69796;BME280;57073;45.650;9.612;2023-06-14T01:28:59;98713.81;;;17.47;72.41
69796;BME280;57073;45.650;9.612;2023-06-14T01:34:00;98721.91;;;17.53;72.05
69796;BME280;57073;45.650;9.612;2023-06-14T01:39:01;98714.75;;;17.57;72.55
69796;BME280;57073;45.650;9.612;2023-06-14T01:44:02;98720.06;;;17.48;71.92
69796;BME280;57073;45.650;9.612;2023-06-14T01:49:03;98718.06;;;17.54;71.21
69796;BME280;57073;45.650;9.612;2023-06-14T01:54:04;98718.25;;;17.43;71.13
69796;BME280;57073;45.650;9.612;2023-06-14T01:59:04;98717.25;;;17.53;71.18
69796;BME280;57073;45.650;9.612;2023-06-14T02:04:05;98722.41;;;17.55;69.97
69796;BME280;57073;45.650;9.612;2023-06-14T02:09:05;98716.03;;;17.45;70.94
69796;BME280;57073;45.650;9.612;2023-06-14T02:14:06;98721.03;;;17.38;72.33
69796;BME280;57073;45.650;9.612;2023-06-14T02:19:07;98710.13;;;17.38;72.52
69796;BME280;57073;45.650;9.612;2023-06-14T02:24:07;98709.69;;;17.31;72.11
69796;BME280;57073;45.650;9.612;2023-06-14T02:29:08;98702.63;;;17.30;71.79
69796;BME280;57073;45.650;9.612;2023-06-14T02:34:12;98699.53;;;16.99;72.36
69796;BME280;57073;45.650;9.612;2023-06-14T02:39:13;98695.41;;;16.82;71.51
69796;BME280;57073;45.650;9.612;2023-06-14T02:44:13;98695.63;;;17.05;71.54
69796;BME280;57073;45.650;9.612;2023-06-14T02:49:15;98683.19;;;16.99;72.55
69796;BME280;57073;45.650;9.612;2023-06-14T02:54:15;98683.13;;;17.04;72.89
69796;BME280;57073;45.650;9.612;2023-06-14T02:59:15;98677.97;;;17.02;72.36
69796;BME280;57073;45.650;9.612;2023-06-14T03:04:17;98675.59;;;16.96;75.02
69796;BME280;57073;45.650;9.612;2023-06-14T03:09:17;98671.19;;;17.19;74.25
69796;BME280;57073;45.650;9.612;2023-06-14T03:14:17;98676.94;;;17.17;74.16
69796;BME280;57073;45.650;9.612;2023-06-14T03:19:19;98673.13;;;17.18;75.30
69796;BME280;57073;45.650;9.612;2023-06-14T03:24:20;98659.34;;;17.09;74.25
69796;BME280;57073;45.650;9.612;2023-06-14T03:29:20;98661.19;;;17.14;74.04
69796;BME280;57073;45.650;9.612;2023-06-14T03:34:21;98666.84;;;16.99;75.32
69796;BME280;57073;45.650;9.612;2023-06-14T03:39:22;98669.50;;;17.23;74.53
69796;BME280;57073;45.650;9.612;2023-06-14T03:44:22;98664.03;;;17.23;74.88
69796;BME280;57073;45.650;9.612;2023-06-14T03:49:23;98662.94;;;17.24;73.31
69796;BME280;57073;45.650;9.612;2023-06-14T03:54:23;98655.00;;;17.08;72.82
69796;BME280;57073;45.650;9.612;2023-06-14T03:59:24;98660.72;;;17.26;72.68
69796;BME280;57073;45.650;9.612;2023-06-14T04:04:25;98664.25;;;17.26;71.92
69796;BME280;57073;45.650;9.612;2023-06-14T04:09:31;98665.97;;;17.22;72.08
69796;BME280;57073;45.650;9.612;2023-06-14T04:14:32;98671.91;;;17.24;72.33
69796;BME280;57073;45.650;9.612;2023-06-14T04:19:33;98667.88;;;17.22;71.94
69796;BME280;57073;45.650;9.612;2023-06-14T04:24:33;98669.06;;;17.16;71.42
69796;BME280;57073;45.650;9.612;2023-06-14T04:29:34;98665.09;;;17.08;73.26
69796;BME280;57073;45.650;9.612;2023-06-14T04:34:36;98670.31;;;17.04;73.73
69796;BME280;57073;45.650;9.612;2023-06-14T04:39:37;98673.34;;;17.22;72.95
69796;BME280;57073;45.650;9.612;2023-06-14T04:44:37;98665.09;;;17.27;72.19
69796;BME280;57073;45.650;9.612;2023-06-14T04:49:40;98681.44;;;17.27;72.77
69796;BME280;57073;45.650;9.612;2023-06-14T04:54:41;98679.22;;;17.29;71.69
69796;BME280;57073;45.650;9.612;2023-06-14T04:59:42;98684.06;;;17.32;71.34
69796;BME280;57073;45.650;9.612;2023-06-14T05:04:44;98680.16;;;17.38;71.96
69796;BME280;57073;45.650;9.612;2023-06-14T05:09:45;98668.97;;;17.40;72.49
69796;BME280;57073;45.650;9.612;2023-06-14T05:14:45;98671.66;;;17.59;72.03
69796;BME280;57073;45.650;9.612;2023-06-14T05:19:46;98678.56;;;17.70;71.95
69796;BME280;57073;45.650;9.612;2023-06-14T05:24:46;98689.38;;;17.75;70.58
69796;BME280;57073;45.650;9.612;2023-06-14T05:29:48;98689.38;;;17.75;71.40
69796;BME280;57073;45.650;9.612;2023-06-14T05:34:48;98692.31;;;17.79;69.63
69796;BME280;57073;45.650;9.612;2023-06-14T05:39:49;98688.84;;;17.92;70.20
69796;BME280;57073;45.650;9.612;2023-06-14T05:44:49;98700.88;;;18.05;69.15
69796;BME280;57073;45.650;9.612;2023-06-14T05:49:50;98708.94;;;18.10;68.01
69796;BME280;57073;45.650;9.612;2023-06-14T05:54:50;98716.44;;;18.18;67.27
69796;BME280;57073;45.650;9.612;2023-06-14T05:59:50;98722.50;;;18.15;67.24
69796;BME280;57073;45.650;9.612;2023-06-14T06:04:51;98729.78;;;18.20;67.40
69796;BME280;57073;45.650;9.612;2023-06-14T06:09:51;98724.97;;;18.31;66.91
69796;BME280;57073;45.650;9.612;2023-06-14T06:14:52;98737.97;;;18.34;66.60
69796;BME280;57073;45.650;9.612;2023-06-14T06:19:52;98739.19;;;18.28;67.15
69796;BME280;57073;45.650;9.612;2023-06-14T06:24:52;98740.25;;;18.46;66.58
69796;BME280;57073;45.650;9.612;2023-06-14T06:29:53;98748.19;;;18.28;65.87
69796;BME280;57073;45.650;9.612;2023-06-14T06:34:53;98749.50;;;18.44;66.43
69796;BME280;57073;45.650;9.612;2023-06-14T06:39:53;98766.16;;;18.76;66.20
69796;BME280;57073;45.650;9.612;2023-06-14T06:44:54;98765.53;;;18.93;64.04
69796;BME280;57073;45.650;9.612;2023-06-14T06:49:54;98771.91;;;19.02;62.97
69796;BME280;57073;45.650;9.612;2023-06-14T06:54:55;98775.22;;;18.99;62.37
69796;BME280;57073;45.650;9.612;2023-06-14T06:59:56;98775.72;;;19.15;61.74
69796;BME280;57073;45.650;9.612;2023-06-14T07:04:57;98773.19;;;19.32;60.69
69796;BME280;57073;45.650;9.612;2023-06-14T07:09:57;98779.81;;;19.54;59.90
69796;BME280;57073;45.650;9.612;2023-06-14T07:14:58;98768.03;;;19.53;57.65
69796;BME280;57073;45.650;9.612;2023-06-14T07:19:58;98785.28;;;19.76;57.13
69796;BME280;57073;45.650;9.612;2023-06-14T07:24:58;98789.03;;;20.03;56.94
69796;BME280;57073;45.650;9.612;2023-06-14T07:29:58;98795.13;;;20.00;55.92
69796;BME280;57073;45.650;9.612;2023-06-14T07:34:59;98798.13;;;20.12;54.52
69796;BME280;57073;45.650;9.612;2023-06-14T07:39:59;98800.56;;;20.45;54.45
69796;BME280;57073;45.650;9.612;2023-06-14T07:45:00;98797.09;;;20.31;53.85
69796;BME280;57073;45.650;9.612;2023-06-14T07:50:00;98803.16;;;20.82;53.64
69796;BME280;57073;45.650;9.612;2023-06-14T07:55:00;98796.25;;;20.53;52.97
69796;BME280;57073;45.650;9.612;2023-06-14T08:00:01;98808.75;;;21.25;53.21
69796;BME280;57073;45.650;9.612;2023-06-14T08:05:01;98805.44;;;21.55;51.49
69796;BME280;57073;45.650;9.612;2023-06-14T08:10:02;98813.38;;;21.91;51.57
69796;BME280;57073;45.650;9.612;2023-06-14T08:15:03;98804.94;;;22.14;49.76
69796;BME280;57073;45.650;9.612;2023-06-14T08:20:04;98807.81;;;22.35;49.82
69796;BME280;57073;45.650;9.612;2023-06-14T08:25:05;98810.53;;;22.43;49.19
69796;BME280;57073;45.650;9.612;2023-06-14T08:30:07;98806.69;;;22.27;47.27
69796;BME280;57073;45.650;9.612;2023-06-14T08:35:08;98811.41;;;22.65;49.11
69796;BME280;57073;45.650;9.612;2023-06-14T08:40:30;98813.06;;;23.05;47.43
69796;BME280;57073;45.650;9.612;2023-06-14T08:45:31;98807.09;;;23.53;45.37
69796;BME280;57073;45.650;9.612;2023-06-14T08:50:34;98817.31;;;23.74;44.29
69796;BME280;57073;45.650;9.612;2023-06-14T08:55:37;98804.41;;;24.20;44.95
69796;BME280;57073;45.650;9.612;2023-06-14T09:00:39;98812.09;;;24.48;43.65
69796;BME280;57073;45.650;9.612;2023-06-14T09:05:41;98812.84;;;24.03;42.64
69796;BME280;57073;45.650;9.612;2023-06-14T09:10:42;98821.31;;;23.97;43.73
69796;BME280;57073;45.650;9.612;2023-06-14T09:15:42;98807.19;;;23.87;43.25
69796;BME280;57073;45.650;9.612;2023-06-14T09:20:43;98812.78;;;23.90;42.35
69796;BME280;57073;45.650;9.612;2023-06-14T09:25:44;98812.72;;;23.99;42.67
69796;BME280;57073;45.650;9.612;2023-06-14T09:30:45;98814.00;;;23.81;42.10
69796;BME280;57073;45.650;9.612;2023-06-14T09:35:46;98810.94;;;24.15;43.27
69796;BME280;57073;45.650;9.612;2023-06-14T09:40:50;98822.34;;;24.26;43.00
69796;BME280;57073;45.650;9.612;2023-06-14T09:45:51;98817.97;;;24.59;41.67
69796;BME280;57073;45.650;9.612;2023-06-14T09:50:52;98813.66;;;24.37;41.29
69796;BME280;57073;45.650;9.612;2023-06-14T09:55:57;98816.25;;;24.54;41.66
69796;BME280;57073;45.650;9.612;2023-06-14T10:00:59;98811.66;;;24.58;41.94
69796;BME280;57073;45.650;9.612;2023-06-14T10:06:02;98814.69;;;24.32;40.81
69796;BME280;57073;45.650;9.612;2023-06-14T10:11:03;98815.28;;;24.50;41.90
69796;BME280;57073;45.650;9.612;2023-06-14T10:26:57;98806.03;;;24.67;42.09
69796;BME280;57073;45.650;9.612;2023-06-14T10:31:59;98805.44;;;24.73;42.69
69796;BME280;57073;45.650;9.612;2023-06-14T10:37:11;98802.44;;;24.66;41.04
69796;BME280;57073;45.650;9.612;2023-06-14T10:42:12;98805.91;;;24.51;41.02
69796;BME280;57073;45.650;9.612;2023-06-14T10:47:27;98794.06;;;24.75;42.27
69796;BME280;57073;45.650;9.612;2023-06-14T10:52:28;98788.44;;;24.59;42.26
69796;BME280;57073;45.650;9.612;2023-06-14T10:57:30;98792.03;;;24.14;42.42
69796;BME280;57073;45.650;9.612;2023-06-14T11:13:28;98777.06;;;24.36;43.78
69796;BME280;57073;45.650;9.612;2023-06-14T11:18:29;98776.91;;;23.87;42.79
69796;BME280;57073;45.650;9.612;2023-06-14T11:23:29;98772.94;;;24.21;43.73
69796;BME280;57073;45.650;9.612;2023-06-14T11:28:40;98772.13;;;24.42;44.50
69796;BME280;57073;45.650;9.612;2023-06-14T11:33:40;98755.59;;;24.08;41.49
69796;BME280;57073;45.650;9.612;2023-06-14T11:38:41;98755.56;;;23.63;42.63
69796;BME280;57073;45.650;9.612;2023-06-14T11:43:41;98750.81;;;23.84;42.86
69796;BME280;57073;45.650;9.612;2023-06-14T11:48:42;98751.25;;;23.74;43.48
69796;BME280;57073;45.650;9.612;2023-06-14T11:53:43;98742.94;;;23.62;42.49
69796;BME280;57073;45.650;9.612;2023-06-14T11:58:43;98731.59;;;23.96;43.06
69796;BME280;57073;45.650;9.612;2023-06-14T12:03:51;98741.19;;;23.90;41.62
69796;BME280;57073;45.650;9.612;2023-06-14T12:08:55;98739.97;;;23.67;40.64
69796;BME280;57073;45.650;9.612;2023-06-14T12:13:56;98723.81;;;23.65;40.64
69796;BME280;57073;45.650;9.612;2023-06-14T12:19:00;98721.44;;;23.76;41.71
69796;BME280;57073;45.650;9.612;2023-06-14T12:24:03;98723.16;;;23.81;41.43
69796;BME280;57073;45.650;9.612;2023-06-14T12:29:05;98719.41;;;23.31;41.28
69796;BME280;57073;45.650;9.612;2023-06-14T12:34:07;98712.84;;;23.56;41.66
69796;BME280;57073;45.650;9.612;2023-06-14T12:39:08;98713.25;;;23.46;42.71
69796;BME280;57073;45.650;9.612;2023-06-14T12:44:10;98708.69;;;23.50;41.92
69796;BME280;57073;45.650;9.612;2023-06-14T12:49:11;98714.44;;;23.78;42.83
69796;BME280;57073;45.650;9.612;2023-06-14T12:54:11;98709.56;;;23.96;42.63
69796;BME280;57073;45.650;9.612;2023-06-14T12:59:12;98706.09;;;23.87;43.23
69796;BME280;57073;45.650;9.612;2023-06-14T13:04:12;98707.00;;;23.79;42.87
69796;BME280;57073;45.650;9.612;2023-06-14T13:09:13;98702.66;;;23.78;42.48
69796;BME280;57073;45.650;9.612;2023-06-14T13:14:15;98700.56;;;23.75;42.94
69796;BME280;57073;45.650;9.612;2023-06-14T13:19:16;98692.56;;;23.82;42.43
69796;BME280;57073;45.650;9.612;2023-06-14T13:24:16;98692.34;;;23.87;42.80
69796;BME280;57073;45.650;9.612;2023-06-14T13:29:17;98695.00;;;23.96;43.45
69796;BME280;57073;45.650;9.612;2023-06-14T13:34:17;98684.25;;;23.70;44.30
69796;BME280;57073;45.650;9.612;2023-06-14T13:39:17;98674.88;;;23.71;45.35
69796;BME280;57073;45.650;9.612;2023-06-14T13:44:18;98672.19;;;24.08;44.87
69796;BME280;57073;45.650;9.612;2023-06-14T13:49:21;98666.66;;;24.08;44.14
69796;BME280;57073;45.650;9.612;2023-06-14T13:54:21;98667.16;;;24.22;44.22
69796;BME280;57073;45.650;9.612;2023-06-14T13:59:22;98677.72;;;24.20;44.82
69796;BME280;57073;45.650;9.612;2023-06-14T14:04:23;98660.75;;;24.30;44.30
69796;BME280;57073;45.650;9.612;2023-06-14T14:09:23;98664.00;;;23.99;45.35
69796;BME280;57073;45.650;9.612;2023-06-14T14:14:24;98660.25;;;24.04;44.86
69796;BME280;57073;45.650;9.612;2023-06-14T14:19:24;98664.13;;;24.03;44.51
69796;BME280;57073;45.650;9.612;2023-06-14T14:24:25;98662.44;;;24.10;44.30
69796;BME280;57073;45.650;9.612;2023-06-14T14:29:25;98653.72;;;24.21;44.53
69796;BME280;57073;45.650;9.612;2023-06-14T14:34:29;98655.38;;;23.76;44.01
69796;BME280;57073;45.650;9.612;2023-06-14T14:39:29;98649.69;;;23.60;43.36
69796;BME280;57073;45.650;9.612;2023-06-14T14:44:30;98643.03;;;23.94;43.91
69796;BME280;57073;45.650;9.612;2023-06-14T14:49:31;98640.03;;;24.12;43.87
69796;BME280;57073;45.650;9.612;2023-06-14T14:54:32;98637.63;;;23.86;42.90
69796;BME280;57073;45.650;9.612;2023-06-14T14:59:32;98646.91;;;23.93;43.95
69796;BME280;57073;45.650;9.612;2023-06-14T15:04:32;98650.94;;;23.96;42.93
69796;BME280;57073;45.650;9.612;2023-06-14T15:09:33;98652.78;;;24.04;42.02
69796;BME280;57073;45.650;9.612;2023-06-14T15:14:33;98655.97;;;23.94;41.50
69796;BME280;57073;45.650;9.612;2023-06-14T15:19:33;98648.97;;;23.84;42.08
69796;BME280;57073;45.650;9.612;2023-06-14T15:24:36;98650.47;;;23.94;42.33
69796;BME280;57073;45.650;9.612;2023-06-14T15:29:36;98638.09;;;24.00;42.06
69796;BME280;57073;45.650;9.612;2023-06-14T15:34:37;98636.34;;;23.95;41.35
69796;BME280;57073;45.650;9.612;2023-06-14T15:39:39;98626.16;;;23.96;42.43
69796;BME280;57073;45.650;9.612;2023-06-14T15:44:39;98635.38;;;24.12;41.78
69796;BME280;57073;45.650;9.612;2023-06-14T15:49:41;98624.00;;;24.02;41.10
69796;BME280;57073;45.650;9.612;2023-06-14T15:54:42;98625.09;;;23.88;41.43
69796;BME280;57073;45.650;9.612;2023-06-14T15:59:42;98628.34;;;24.03;41.42
69796;BME280;57073;45.650;9.612;2023-06-14T16:04:42;98623.28;;;24.05;41.45
69796;BME280;57073;45.650;9.612;2023-06-14T16:09:43;98629.47;;;23.89;41.03
69796;BME280;57073;45.650;9.612;2023-06-14T16:14:43;98625.09;;;23.88;40.39
69796;BME280;57073;45.650;9.612;2023-06-14T16:19:43;98644.38;;;23.88;41.55
69796;BME280;57073;45.650;9.612;2023-06-14T16:24:44;98648.50;;;23.82;40.36
69796;BME280;57073;45.650;9.612;2023-06-14T16:29:44;98643.00;;;23.49;41.10
69796;BME280;57073;45.650;9.612;2023-06-14T16:34:44;98649.91;;;23.55;40.78
69796;BME280;57073;45.650;9.612;2023-06-14T16:39:45;98651.16;;;23.45;41.19
69796;BME280;57073;45.650;9.612;2023-06-14T16:44:45;98655.16;;;23.48;41.35
69796;BME280;57073;45.650;9.612;2023-06-14T16:49:45;98666.81;;;23.45;40.84
69796;BME280;57073;45.650;9.612;2023-06-14T16:54:46;98675.50;;;23.34;40.41
69796;BME280;57073;45.650;9.612;2023-06-14T16:59:46;98680.44;;;23.41;40.73
69796;BME280;57073;45.650;9.612;2023-06-14T17:04:46;98680.72;;;23.48;41.15
69796;BME280;57073;45.650;9.612;2023-06-14T17:09:47;98688.16;;;23.48;40.39
69796;BME280;57073;45.650;9.612;2023-06-14T17:14:47;98696.69;;;23.55;39.72
69796;BME280;57073;45.650;9.612;2023-06-14T17:19:48;98696.91;;;23.29;40.19
69796;BME280;57073;45.650;9.612;2023-06-14T17:24:49;98712.00;;;23.44;40.45
69796;BME280;57073;45.650;9.612;2023-06-14T17:29:49;98710.09;;;23.56;41.22
69796;BME280;57073;45.650;9.612;2023-06-14T17:34:49;98703.69;;;23.31;41.30
69796;BME280;57073;45.650;9.612;2023-06-14T17:39:50;98708.72;;;23.08;41.42
69796;BME280;57073;45.650;9.612;2023-06-14T17:44:50;98724.69;;;23.15;41.74
69796;BME280;57073;45.650;9.612;2023-06-14T17:49:52;98728.97;;;23.04;40.73
69796;BME280;57073;45.650;9.612;2023-06-14T17:54:53;98731.31;;;23.14;40.94
69796;BME280;57073;45.650;9.612;2023-06-14T17:59:54;98723.88;;;23.14;41.15
69796;BME280;57073;45.650;9.612;2023-06-14T18:04:57;98727.69;;;23.01;41.45
69796;BME280;57073;45.650;9.612;2023-06-14T18:09:57;98724.53;;;23.11;41.69
69796;BME280;57073;45.650;9.612;2023-06-14T18:14:57;98719.25;;;22.76;40.32
69796;BME280;57073;45.650;9.612;2023-06-14T18:19:58;98727.28;;;22.81;40.55
69796;BME280;57073;45.650;9.612;2023-06-14T18:24:58;98738.13;;;22.78;41.17
69796;BME280;57073;45.650;9.612;2023-06-14T18:29:58;98740.88;;;22.78;41.39
69796;BME280;57073;45.650;9.612;2023-06-14T18:34:59;98744.31;;;22.75;41.17
69796;BME280;57073;45.650;9.612;2023-06-14T18:39:59;98763.28;;;22.59;42.09
69796;BME280;57073;45.650;9.612;2023-06-14T18:45:00;98767.25;;;22.79;42.48
69796;BME280;57073;45.650;9.612;2023-06-14T18:50:00;98783.06;;;22.82;41.34
69796;BME280;57073;45.650;9.612;2023-06-14T18:55:01;98789.78;;;22.63;41.19
69796;BME280;57073;45.650;9.612;2023-06-14T19:00:01;98790.31;;;22.87;42.09
69796;BME280;57073;45.650;9.612;2023-06-14T19:05:05;98795.75;;;22.66;41.68
69796;BME280;57073;45.650;9.612;2023-06-14T19:10:06;98795.19;;;22.81;42.38
69796;BME280;57073;45.650;9.612;2023-06-14T19:15:07;98810.97;;;22.54;42.93
69796;BME280;57073;45.650;9.612;2023-06-14T19:20:08;98815.19;;;22.52;43.32
69796;BME280;57073;45.650;9.612;2023-06-14T19:25:08;98840.25;;;22.41;43.49
69796;BME280;57073;45.650;9.612;2023-06-14T19:30:09;98854.66;;;21.60;47.70
69796;BME280;57073;45.650;9.612;2023-06-14T19:35:10;98870.56;;;21.32;48.32
69796;BME280;57073;45.650;9.612;2023-06-14T19:40:11;98882.72;;;20.99;50.79
69796;BME280;57073;45.650;9.612;2023-06-14T19:45:11;98886.72;;;20.93;52.33
69796;BME280;57073;45.650;9.612;2023-06-14T19:50:13;98899.25;;;20.85;54.05
69796;BME280;57073;45.650;9.612;2023-06-14T19:55:13;98927.66;;;20.89;54.58
69796;BME280;57073;45.650;9.612;2023-06-14T20:00:14;98927.59;;;20.81;54.33
69796;BME280;57073;45.650;9.612;2023-06-14T20:05:14;98930.41;;;20.89;53.76
69796;BME280;57073;45.650;9.612;2023-06-14T20:10:15;98936.84;;;20.94;54.18
69796;BME280;57073;45.650;9.612;2023-06-14T20:15:15;98942.56;;;21.06;53.31
69796;BME280;57073;45.650;9.612;2023-06-14T20:20:15;98935.53;;;20.91;54.19
69796;BME280;57073;45.650;9.612;2023-06-14T20:25:16;98931.50;;;20.88;54.67
69796;BME280;57073;45.650;9.612;2023-06-14T20:30:18;98929.44;;;20.94;55.85
69796;BME280;57073;45.650;9.612;2023-06-14T20:35:18;98938.75;;;20.84;55.92
69796;BME280;57073;45.650;9.612;2023-06-14T20:40:22;98930.25;;;20.49;56.35
69796;BME280;57073;45.650;9.612;2023-06-14T20:45:23;98924.19;;;20.30;57.43
69796;BME280;57073;45.650;9.612;2023-06-14T20:50:26;98914.28;;;19.70;57.47
69796;BME280;57073;45.650;9.612;2023-06-14T20:55:26;98914.31;;;19.56;57.64
69796;BME280;57073;45.650;9.612;2023-06-14T21:00:28;98912.06;;;19.44;58.29
69796;BME280;57073;45.650;9.612;2023-06-14T21:05:30;98906.72;;;19.89;58.27
69796;BME280;57073;45.650;9.612;2023-06-14T21:10:30;98910.16;;;19.95;58.23
69796;BME280;57073;45.650;9.612;2023-06-14T21:15:31;98916.34;;;20.01;57.80
69796;BME280;57073;45.650;9.612;2023-06-14T21:20:31;98937.09;;;20.15;57.95
69796;BME280;57073;45.650;9.612;2023-06-14T21:25:31;98942.88;;;20.00;58.41
69796;BME280;57073;45.650;9.612;2023-06-14T21:30:35;98923.66;;;19.91;58.54
69796;BME280;57073;45.650;9.612;2023-06-14T21:35:36;98934.44;;;19.60;60.74
69796;BME280;57073;45.650;9.612;2023-06-14T21:40:36;98931.63;;;19.65;59.52
69796;BME280;57073;45.650;9.612;2023-06-14T21:45:37;98937.00;;;19.56;59.58
69796;BME280;57073;45.650;9.612;2023-06-14T21:50:37;98953.09;;;19.72;59.62
69796;BME280;57073;45.650;9.612;2023-06-14T21:55:39;98951.16;;;19.72;59.26
69796;BME280;57073;45.650;9.612;2023-06-14T22:00:40;98966.88;;;19.53;58.44
69796;BME280;57073;45.650;9.612;2023-06-14T22:05:40;98959.59;;;19.48;58.33
69796;BME280;57073;45.650;9.612;2023-06-14T22:10:41;98975.38;;;19.51;58.14
69796;BME280;57073;45.650;9.612;2023-06-14T22:15:41;98968.69;;;19.44;58.24
69796;BME280;57073;45.650;9.612;2023-06-14T22:20:45;98979.44;;;19.54;57.40
69796;BME280;57073;45.650;9.612;2023-06-14T22:25:45;98977.31;;;19.51;57.17
69796;BME280;57073;45.650;9.612;2023-06-14T22:30:46;98981.25;;;19.31;57.70
69796;BME280;57073;45.650;9.612;2023-06-14T22:35:48;98977.59;;;19.63;56.46
69796;BME280;57073;45.650;9.612;2023-06-14T22:40:49;98956.84;;;19.48;57.29
69796;BME280;57073;45.650;9.612;2023-06-14T22:45:50;98960.03;;;19.23;58.69
69796;BME280;57073;45.650;9.612;2023-06-14T22:50:51;98958.25;;;19.59;58.62
69796;BME280;57073;45.650;9.612;2023-06-14T22:55:51;98961.69;;;19.65;59.28
69796;BME280;57073;45.650;9.612;2023-06-14T23:00:52;98966.47;;;19.73;60.46
69796;BME280;57073;45.650;9.612;2023-06-14T23:05:53;98969.19;;;19.73;59.63
69796;BME280;57073;45.650;9.612;2023-06-14T23:10:56;98967.16;;;19.65;60.55
69796;BME280;57073;45.650;9.612;2023-06-14T23:15:57;98967.06;;;19.70;59.40
69796;BME280;57073;45.650;9.612;2023-06-14T23:20:57;98960.28;;;19.54;58.63
69796;BME280;57073;45.650;9.612;2023-06-14T23:25:58;98954.19;;;19.15;57.70
69796;BME280;57073;45.650;9.612;2023-06-14T23:31:00;98954.69;;;19.17;56.43
69796;BME280;57073;45.650;9.612;2023-06-14T23:36:02;98946.53;;;18.85;56.83
69796;BME280;57073;45.650;9.612;2023-06-14T23:41:04;98957.97;;;18.87;56.78
69796;BME280;57073;45.650;9.612;2023-06-14T23:46:05;98959.81;;;18.58;56.58
69796;BME280;57073;45.650;9.612;2023-06-14T23:51:05;98965.84;;;18.55;56.88
69796;BME280;57073;45.650;9.612;2023-06-14T23:56:06;98964.97;;;18.60;56.41
